Time;durP1;ratioP1;P1;durP2;ratioP2;P2;SDS_P1;SDS_P2;PMS_P1;PMS_P2;Temp;Humidity;BMP_temperature;BMP_pressure;BME280_temperature;BME280_humidity;BME280_pressure;Samples;Min_cycle;Max_cycle;Signal;HPM_P1;HPM_P2
2023/07/09 00:00:51;;;;;;;16.35;6.57;;;20.90;99.90;;;;;;5000120;28;20029;-82
2023/07/09 00:03:19;;;;;;;11.68;6.45;;;20.80;99.90;;;;;;5017269;28;20167;-82
2023/07/09 00:05:47;;;;;;;12.65;6.47;;;20.80;99.90;;;;;;5014855;28;20026;-81
2023/07/09 00:08:42;;;;;;;12.20;6.65;;;20.80;99.90;;;;;;5018556;28;20037;-81
2023/07/09 00:11:07;;;;;;;10.77;6.35;;;20.80;99.90;;;;;;5003077;28;20041;-81
2023/07/09 00:13:33;;;;;;;11.77;6.75;;;20.70;99.90;;;;;;5000845;28;20021;-81
2023/07/09 00:16:02;;;;;;;11.85;6.47;;;20.70;99.90;;;;;;5000617;28;20018;-81
2023/07/09 00:18:28;;;;;;;11.23;6.30;;;20.60;99.90;;;;;;5015495;28;20029;-82
2023/07/09 00:20:54;;;;;;;11.10;6.57;;;20.60;99.90;;;;;;5001542;28;20133;-82
2023/07/09 00:23:20;;;;;;;17.85;6.47;;;20.60;99.90;;;;;;5017986;28;20048;-82
2023/07/09 00:25:47;;;;;;;12.10;6.30;;;20.60;99.90;;;;;;5002333;28;20049;-82
2023/07/09 00:28:17;;;;;;;13.10;6.47;;;20.50;99.90;;;;;;5002292;28;20038;-82
2023/07/09 00:30:47;;;;;;;12.57;6.70;;;20.50;99.90;;;;;;4996651;28;20065;-82
2023/07/09 00:33:19;;;;;;;11.63;6.20;;;20.40;99.90;;;;;;5017320;28;20029;-82
2023/07/09 00:35:48;;;;;;;11.90;6.43;;;20.40;99.90;;;;;;4982896;28;20022;-82
2023/07/09 00:38:17;;;;;;;11.55;6.32;;;20.40;99.90;;;;;;4999602;28;20423;-82
2023/07/09 00:40:56;;;;;;;12.52;6.75;;;20.40;99.90;;;;;;4984445;28;20034;-82
2023/07/09 00:43:22;;;;;;;12.65;6.40;;;20.30;99.90;;;;;;5014920;28;20030;-81
2023/07/09 00:46:10;;;;;;;12.23;6.63;;;20.30;99.90;;;;;;4983046;28;20169;-81
2023/07/09 00:48:36;;;;;;;12.45;6.45;;;20.30;99.90;;;;;;5015993;28;20021;-82
2023/07/09 00:51:07;;;;;;;14.30;6.35;;;20.30;99.90;;;;;;4984343;28;20068;-82
2023/07/09 00:53:33;;;;;;;13.40;6.07;;;20.30;99.90;;;;;;4981654;28;20085;-81
2023/07/09 00:56:04;;;;;;;11.02;6.70;;;20.20;99.90;;;;;;4984119;28;20018;-82
2023/07/09 00:58:31;;;;;;;13.20;6.70;;;20.20;99.90;;;;;;4990941;28;20022;-82
2023/07/09 01:01:03;;;;;;;11.05;6.15;;;20.10;99.90;;;;;;5016717;28;20308;-82
2023/07/09 01:03:36;;;;;;;11.25;6.65;;;20.10;99.90;;;;;;5017528;28;20014;-82
2023/07/09 01:06:05;;;;;;;17.55;6.60;;;20.10;99.90;;;;;;4996246;28;20018;-82
2023/07/09 01:08:34;;;;;;;13.50;6.47;;;20.10;99.90;;;;;;4999432;28;20018;-82
2023/07/09 01:11:00;;;;;;;11.77;6.70;;;20.10;99.90;;;;;;4997747;28;20115;-82
2023/07/09 01:13:27;;;;;;;11.90;6.88;;;20.10;99.90;;;;;;4992862;28;20047;-81
2023/07/09 01:15:53;;;;;;;11.77;6.32;;;20.00;99.90;;;;;;5017606;28;20075;-82
2023/07/09 01:18:21;;;;;;;11.57;6.45;;;20.00;99.90;;;;;;4992227;28;20026;-82
2023/07/09 01:20:47;;;;;;;13.13;6.70;;;20.00;99.90;;;;;;4984570;28;20199;-81
2023/07/09 01:23:14;;;;;;;13.77;6.95;;;19.90;99.90;;;;;;4999597;28;20034;-81
2023/07/09 01:25:52;;;;;;;12.13;7.05;;;19.90;99.90;;;;;;5000456;28;20097;-81
2023/07/09 01:28:20;;;;;;;11.70;6.30;;;20.00;99.90;;;;;;5016439;28;20041;-82
2023/07/09 01:30:46;;;;;;;12.93;7.10;;;20.00;99.90;;;;;;4998271;28;20049;-82
2023/07/09 01:33:11;;;;;;;11.40;6.63;;;19.90;99.90;;;;;;5016945;28;20166;-82
2023/07/09 01:35:42;;;;;;;11.07;6.57;;;19.90;99.90;;;;;;4984559;28;20014;-81
2023/07/09 01:38:08;;;;;;;10.70;6.18;;;19.90;99.90;;;;;;4996203;28;20037;-81
2023/07/09 01:40:35;;;;;;;11.20;6.50;;;19.90;99.90;;;;;;4985109;28;20078;-81
2023/07/09 01:43:06;;;;;;;12.77;7.10;;;19.80;99.90;;;;;;4991973;28;20017;-81
2023/07/09 01:45:33;;;;;;;12.10;7.22;;;19.70;99.90;;;;;;4993251;28;20040;-81
2023/07/09 01:47:58;;;;;;;12.30;7.00;;;19.70;99.90;;;;;;4982199;28;20022;-81
2023/07/09 01:50:26;;;;;;;12.73;6.60;;;19.70;99.90;;;;;;5005160;28;20088;-81
2023/07/09 01:52:53;;;;;;;12.02;7.15;;;19.70;99.90;;;;;;5016718;28;20034;-81
2023/07/09 01:55:19;;;;;;;11.50;7.00;;;19.70;99.90;;;;;;5015895;28;20678;-82
2023/07/09 01:57:45;;;;;;;12.98;7.13;;;19.70;99.90;;;;;;4998859;28;20097;-82
2023/07/09 02:00:14;;;;;;;10.85;6.57;;;19.70;99.90;;;;;;4992041;28;20022;-82
2023/07/09 02:02:45;;;;;;;12.02;6.88;;;19.60;99.90;;;;;;5015074;28;20036;-82
2023/07/09 02:05:13;;;;;;;13.35;7.13;;;19.90;99.90;;;;;;4998117;28;20143;-82
2023/07/09 02:07:39;;;;;;;12.52;7.22;;;19.60;99.90;;;;;;4999395;28;20025;-82
2023/07/09 02:10:06;;;;;;;12.70;7.30;;;19.60;99.90;;;;;;4989729;28;20274;-82
2023/07/09 02:12:31;;;;;;;12.10;7.13;;;19.60;99.90;;;;;;4982980;28;20018;-82
2023/07/09 02:14:57;;;;;;;12.02;7.50;;;19.60;99.90;;;;;;5000509;28;20217;-81
2023/07/09 02:17:23;;;;;;;12.07;7.45;;;19.60;99.90;;;;;;5015432;28;20026;-82
2023/07/09 02:19:48;;;;;;;12.55;7.82;;;19.60;99.90;;;;;;5013121;28;20022;-82
2023/07/09 02:22:14;;;;;;;12.43;7.30;;;19.50;99.90;;;;;;4997377;28;20224;-82
2023/07/09 02:24:40;;;;;;;13.38;7.53;;;19.50;99.90;;;;;;4995137;28;20249;-82
2023/07/09 02:27:07;;;;;;;11.70;6.95;;;19.50;99.90;;;;;;4998211;28;20025;-82
2023/07/09 02:29:34;;;;;;;12.07;6.97;;;19.50;99.90;;;;;;5016156;28;20202;-82
2023/07/09 02:32:01;;;;;;;11.98;7.40;;;19.50;99.90;;;;;;4998103;28;20026;-82
2023/07/09 02:34:28;;;;;;;12.35;7.40;;;19.50;99.90;;;;;;5015191;28;20017;-82
2023/07/09 02:36:55;;;;;;;11.82;7.75;;;19.50;99.90;;;;;;4999835;28;20022;-82
2023/07/09 02:39:22;;;;;;;12.27;7.57;;;19.50;99.90;;;;;;4987254;28;20099;-81
2023/07/09 02:41:49;;;;;;;13.20;7.90;;;19.40;99.90;;;;;;5015482;28;20091;-82
2023/07/09 02:44:15;;;;;;;12.65;7.07;;;19.40;99.90;;;;;;5012523;28;20101;-82
2023/07/09 02:46:41;;;;;;;13.27;7.25;;;19.40;99.90;;;;;;4999287;28;20040;-82
2023/07/09 02:49:09;;;;;;;12.48;7.18;;;19.30;99.90;;;;;;4993788;28;20283;-82
2023/07/09 02:51:34;;;;;;;11.40;7.22;;;19.30;99.90;;;;;;4997244;28;20025;-82
2023/07/09 02:54:02;;;;;;;13.55;7.53;;;19.30;99.90;;;;;;5013599;28;20172;-82
2023/07/09 02:56:28;;;;;;;12.50;7.32;;;19.30;99.90;;;;;;4999635;28;20026;-81
2023/07/09 02:58:54;;;;;;;11.90;6.90;;;19.30;99.90;;;;;;5014625;28;20252;-82
2023/07/09 03:01:24;;;;;;;13.52;7.60;;;19.30;99.90;;;;;;4998987;28;20345;-82
2023/07/09 03:03:59;;;;;;;11.88;7.05;;;19.30;99.90;;;;;;5013128;28;20026;-81
2023/07/09 03:06:25;;;;;;;11.40;7.03;;;19.30;99.90;;;;;;5015421;28;20030;-81
2023/07/09 03:08:51;;;;;;;11.55;6.93;;;19.20;99.90;;;;;;5014262;28;20018;-81
2023/07/09 03:11:18;;;;;;;11.45;6.97;;;19.30;99.90;;;;;;4985011;28;20034;-81
2023/07/09 03:13:44;;;;;;;13.07;7.50;;;19.20;99.90;;;;;;5001290;28;20179;-81
2023/07/09 03:16:10;;;;;;;12.73;7.32;;;19.20;99.90;;;;;;5016841;28;20024;-82
2023/07/09 03:18:36;;;;;;;11.63;6.78;;;19.20;99.90;;;;;;5015293;28;20052;-81
2023/07/09 03:21:02;;;;;;;11.85;7.03;;;19.20;99.90;;;;;;5016312;28;20018;-82
2023/07/09 03:23:28;;;;;;;12.90;6.75;;;19.20;99.90;;;;;;4987898;28;20027;-81
2023/07/09 03:25:55;;;;;;;13.15;7.28;;;19.30;99.90;;;;;;5016347;28;20142;-81
2023/07/09 03:28:20;;;;;;;12.45;6.97;;;19.20;99.90;;;;;;5018859;28;20068;-82
2023/07/09 03:30:48;;;;;;;13.23;7.13;;;19.30;99.90;;;;;;4996475;28;20019;-82
2023/07/09 03:33:15;;;;;;;12.02;6.85;;;19.30;99.90;;;;;;4998214;28;20172;-81
2023/07/09 03:35:41;;;;;;;14.45;7.28;;;19.30;99.90;;;;;;5017698;28;21151;-82
2023/07/09 03:38:09;;;;;;;15.77;7.20;;;19.30;99.90;;;;;;5017817;28;20046;-81
2023/07/09 03:40:35;;;;;;;11.70;7.07;;;19.30;99.90;;;;;;5024406;28;20082;-81
2023/07/09 03:43:00;;;;;;;12.93;6.68;;;19.30;99.90;;;;;;4986255;28;20226;-81
2023/07/09 03:45:26;;;;;;;12.32;7.18;;;19.30;99.90;;;;;;5013437;28;20260;-81
2023/07/09 03:47:52;;;;;;;17.00;7.43;;;19.40;99.90;;;;;;5016171;28;20234;-81
2023/07/09 03:50:18;;;;;;;12.00;6.72;;;19.40;99.90;;;;;;4989778;28;20025;-81
2023/07/09 03:52:44;;;;;;;13.23;6.97;;;19.40;99.90;;;;;;5018094;28;20049;-82
2023/07/09 03:55:10;;;;;;;13.30;7.28;;;19.40;99.90;;;;;;5018266;28;20194;-82
2023/07/09 03:57:36;;;;;;;13.07;6.95;;;19.40;99.90;;;;;;5016231;28;20046;-81
2023/07/09 04:00:04;;;;;;;13.20;7.10;;;19.40;99.90;;;;;;4997982;28;20250;-81
2023/07/09 04:02:31;;;;;;;13.98;7.22;;;19.40;99.90;;;;;;5017951;28;20026;-82
2023/07/09 04:04:56;;;;;;;12.48;6.22;;;19.50;99.90;;;;;;5000874;28;20018;-82
2023/07/09 04:07:23;;;;;;;14.05;7.38;;;19.50;99.90;;;;;;5000511;28;20254;-81
2023/07/09 04:09:48;;;;;;;12.82;7.22;;;19.50;99.90;;;;;;5000641;28;20247;-81
2023/07/09 04:12:14;;;;;;;12.85;6.93;;;19.50;99.90;;;;;;4994589;28;20044;-82
2023/07/09 04:14:43;;;;;;;13.27;6.82;;;19.60;99.90;;;;;;5017978;28;20014;-81
2023/07/09 04:17:08;;;;;;;14.35;7.15;;;19.60;99.90;;;;;;4990203;28;20030;-81
2023/07/09 04:19:34;;;;;;;13.82;7.30;;;19.60;99.90;;;;;;4984443;28;20046;-82
2023/07/09 04:22:00;;;;;;;13.07;6.63;;;19.70;99.90;;;;;;4984607;28;20050;-81
2023/07/09 04:24:27;;;;;;;14.10;6.72;;;19.70;99.90;;;;;;4999045;28;20053;-82
2023/07/09 04:26:56;;;;;;;13.48;7.53;;;19.80;99.90;;;;;;4997771;28;20275;-82
2023/07/09 04:29:23;;;;;;;12.13;6.85;;;19.80;99.90;;;;;;4999985;28;20284;-82
2023/07/09 04:31:49;;;;;;;13.40;7.25;;;19.80;99.90;;;;;;5004773;28;20085;-82
2023/07/09 04:34:14;;;;;;;12.82;6.88;;;19.90;99.90;;;;;;5000287;28;20156;-81
2023/07/09 04:36:40;;;;;;;17.10;7.00;;;19.90;99.90;;;;;;4995286;28;20286;-81
2023/07/09 04:39:06;;;;;;;13.40;6.82;;;20.00;99.90;;;;;;5016685;28;20050;-81
2023/07/09 04:41:32;;;;;;;11.80;6.25;;;20.00;99.90;;;;;;4985360;28;20120;-81
2023/07/09 04:43:58;;;;;;;14.20;6.85;;;20.10;99.90;;;;;;5000691;28;20101;-82
2023/07/09 04:46:23;;;;;;;12.23;6.45;;;20.10;99.90;;;;;;5008905;28;20203;-81
2023/07/09 04:48:49;;;;;;;12.35;6.43;;;20.20;99.90;;;;;;4983767;28;20022;-81
2023/07/09 04:51:15;;;;;;;11.40;6.05;;;20.20;99.90;;;;;;4993847;28;20030;-82
2023/07/09 04:53:42;;;;;;;12.85;6.63;;;20.30;99.90;;;;;;4999176;28;20010;-82
2023/07/09 04:56:09;;;;;;;12.65;6.13;;;20.30;99.90;;;;;;4999375;28;20073;-82
2023/07/09 04:58:35;;;;;;;12.90;6.90;;;20.40;99.90;;;;;;4999486;28;20167;-82
2023/07/09 05:01:01;;;;;;;12.00;6.32;;;20.50;99.90;;;;;;4996963;28;20227;-82
2023/07/09 05:03:27;;;;;;;10.65;6.30;;;20.50;99.90;;;;;;4983699;28;20026;-82
2023/07/09 05:05:52;;;;;;;12.00;6.47;;;20.60;99.90;;;;;;4983392;28;20018;-82
2023/07/09 05:08:18;;;;;;;12.60;6.10;;;20.70;99.90;;;;;;5000377;28;20025;-82
2023/07/09 05:10:46;;;;;;;12.27;5.60;;;20.80;99.90;;;;;;5013768;28;20037;-81
2023/07/09 05:13:12;;;;;;;12.55;6.20;;;20.90;99.90;;;;;;5014281;28;20026;-81
2023/07/09 05:15:46;;;;;;;11.25;6.13;;;20.90;99.90;;;;;;5013875;28;20029;-81
2023/07/09 05:18:15;;;;;;;11.85;6.13;;;21.00;99.90;;;;;;4998156;28;20026;-81
2023/07/09 05:20:41;;;;;;;10.65;5.53;;;21.00;99.90;;;;;;5000887;28;20022;-81
2023/07/09 05:23:11;;;;;;;11.63;5.88;;;21.10;99.90;;;;;;5015628;28;20278;-81
2023/07/09 05:25:37;;;;;;;22.40;6.90;;;21.20;99.90;;;;;;5014058;28;20246;-81
2023/07/09 05:28:04;;;;;;;10.25;6.03;;;21.30;99.90;;;;;;5031580;28;20105;-82
2023/07/09 05:30:30;;;;;;;11.45;6.20;;;21.40;99.90;;;;;;4998284;28;20095;-82
2023/07/09 05:32:59;;;;;;;11.60;6.22;;;21.50;99.90;;;;;;5012605;28;20018;-81
2023/07/09 05:35:26;;;;;;;11.80;5.60;;;21.50;99.90;;;;;;5016301;28;20105;-81
2023/07/09 05:37:53;;;;;;;10.73;6.18;;;21.70;99.90;;;;;;4998472;28;20034;-82
2023/07/09 05:40:19;;;;;;;10.68;5.63;;;21.70;99.90;;;;;;5018751;28;20040;-81
2023/07/09 05:42:44;;;;;;;13.20;6.45;;;21.70;99.90;;;;;;5012567;28;20050;-81
2023/07/09 05:45:11;;;;;;;12.30;5.95;;;21.80;99.90;;;;;;4998428;28;20013;-81
2023/07/09 05:47:36;;;;;;;12.25;6.22;;;21.90;99.90;;;;;;4993503;28;20022;-81
2023/07/09 05:50:03;;;;;;;13.68;6.25;;;21.90;99.90;;;;;;4990869;28;20029;-81
2023/07/09 05:52:30;;;;;;;13.07;6.28;;;22.00;99.90;;;;;;5018271;28;20033;-82
2023/07/09 05:54:55;;;;;;;13.10;5.90;;;22.10;99.90;;;;;;4997870;28;20022;-82
2023/07/09 05:57:21;;;;;;;11.70;6.50;;;22.20;99.90;;;;;;4995871;28;20321;-82
2023/07/09 05:59:47;;;;;;;12.45;6.43;;;22.30;99.90;;;;;;4985649;28;20410;-81
2023/07/09 06:02:15;;;;;;;11.82;5.93;;;22.40;99.90;;;;;;5016102;28;20298;-81
2023/07/09 06:04:42;;;;;;;12.00;6.43;;;22.60;99.90;;;;;;5015187;28;20026;-81
2023/07/09 06:07:08;;;;;;;12.73;6.32;;;22.60;99.90;;;;;;4995954;28;20025;-81
2023/07/09 06:09:35;;;;;;;11.20;5.72;;;22.70;99.90;;;;;;4999832;28;20049;-81
2023/07/09 06:12:02;;;;;;;12.75;6.60;;;22.70;99.90;;;;;;5015699;28;20034;-81
2023/07/09 06:14:28;;;;;;;11.07;6.53;;;22.70;99.90;;;;;;4998651;28;20179;-81
2023/07/09 06:16:54;;;;;;;11.68;6.55;;;22.70;99.90;;;;;;5014050;28;20049;-81
2023/07/09 06:19:19;;;;;;;12.60;5.80;;;22.70;99.90;;;;;;4998235;28;20212;-82
2023/07/09 06:21:45;;;;;;;14.65;7.00;;;22.70;99.90;;;;;;4982157;28;20045;-82
2023/07/09 06:24:11;;;;;;;11.70;6.82;;;22.70;99.90;;;;;;4957800;28;20071;-82
2023/07/09 06:26:37;;;;;;;12.60;6.57;;;22.70;99.90;;;;;;4997804;28;20165;-82
2023/07/09 06:29:03;;;;;;;12.70;6.65;;;22.70;99.90;;;;;;5007109;28;20022;-82
2023/07/09 06:31:28;;;;;;;14.77;7.00;;;22.70;99.90;;;;;;5016412;28;20046;-82
2023/07/09 06:33:54;;;;;;;12.63;6.47;;;22.70;99.90;;;;;;4999997;28;20021;-81
2023/07/09 06:36:20;;;;;;;13.68;6.43;;;22.80;99.90;;;;;;4998770;28;20057;-81
2023/07/09 06:38:46;;;;;;;11.52;6.20;;;22.80;99.90;;;;;;5000759;28;20056;-82
2023/07/09 06:41:13;;;;;;;13.50;6.85;;;22.90;99.90;;;;;;4996498;28;20072;-82
2023/07/09 06:43:39;;;;;;;14.32;6.70;;;23.10;99.90;;;;;;4977092;28;20265;-81
2023/07/09 06:46:07;;;;;;;12.07;6.75;;;23.20;99.90;;;;;;4998372;28;20312;-82
2023/07/09 06:48:33;;;;;;;13.27;7.10;;;23.40;99.90;;;;;;5015586;28;20319;-83
2023/07/09 06:51:00;;;;;;;12.40;6.97;;;23.50;99.90;;;;;;5000740;28;20037;-82
2023/07/09 06:53:27;;;;;;;12.82;6.90;;;23.60;99.90;;;;;;5032004;28;20050;-83
2023/07/09 06:55:55;;;;;;;12.23;7.22;;;23.80;99.90;;;;;;4997583;28;20017;-83
2023/07/09 06:58:22;;;;;;;11.95;6.72;;;23.90;99.90;;;;;;5016431;28;20100;-83
2023/07/09 07:00:51;;;;;;;12.20;6.63;;;24.00;99.90;;;;;;4983875;28;20054;-83
2023/07/09 07:03:17;;;;;;;13.43;6.68;;;24.10;99.90;;;;;;5000379;28;20037;-83
2023/07/09 07:05:51;;;;;;;12.65;6.53;;;24.20;99.90;;;;;;5002849;28;20048;-83
2023/07/09 07:08:18;;;;;;;15.48;6.93;;;24.20;99.90;;;;;;5015069;28;20263;-83
2023/07/09 07:10:46;;;;;;;11.07;6.65;;;24.30;99.90;;;;;;5015459;28;20021;-83
2023/07/09 07:13:13;;;;;;;11.55;6.53;;;24.40;99.90;;;;;;4995847;28;20021;-83
2023/07/09 07:15:39;;;;;;;10.65;5.95;;;24.50;99.90;;;;;;5014595;28;20032;-83
2023/07/09 07:18:05;;;;;;;12.30;6.60;;;24.70;99.90;;;;;;5011997;28;20389;-83
2023/07/09 07:20:32;;;;;;;12.98;6.25;;;24.70;99.90;;;;;;4997377;28;20053;-83
2023/07/09 07:22:58;;;;;;;10.93;6.15;;;24.90;99.90;;;;;;4992828;28;20074;-83
2023/07/09 07:25:24;;;;;;;11.77;6.50;;;24.90;99.90;;;;;;5009859;28;20026;-84
2023/07/09 07:27:50;;;;;;;11.80;6.35;;;25.10;99.90;;;;;;4981151;28;20029;-84
2023/07/09 07:30:16;;;;;;;12.32;6.65;;;25.20;99.90;;;;;;5018913;28;20030;-85
2023/07/09 07:32:44;;;;;;;12.90;6.68;;;25.50;99.90;;;;;;4999796;28;20026;-85
2023/07/09 07:35:10;;;;;;;12.70;6.22;;;25.50;99.90;;;;;;5008686;28;20030;-84
2023/07/09 07:37:36;;;;;;;13.07;6.57;;;25.60;99.90;;;;;;5015694;28;20063;-84
2023/07/09 07:40:04;;;;;;;14.02;6.47;;;25.70;99.90;;;;;;4983357;28;20117;-83
2023/07/09 07:42:30;;;;;;;12.52;6.60;;;25.80;99.90;;;;;;5000577;28;20050;-82
2023/07/09 07:44:56;;;;;;;13.40;6.63;;;25.90;99.90;;;;;;4982215;28;20276;-83
2023/07/09 07:47:22;;;;;;;14.65;6.32;;;25.90;99.90;;;;;;4994831;28;20157;-84
2023/07/09 07:49:47;;;;;;;12.05;6.93;;;26.00;99.90;;;;;;5014067;28;20025;-83
2023/07/09 07:52:13;;;;;;;13.10;6.85;;;26.00;99.90;;;;;;5017569;28;20042;-84
2023/07/09 07:54:39;;;;;;;12.50;7.03;;;25.90;99.90;;;;;;4985414;28;20025;-84
2023/07/09 07:57:05;;;;;;;11.20;6.45;;;25.90;99.90;;;;;;5018172;28;20026;-83
2023/07/09 07:59:34;;;;;;;12.23;6.80;;;25.80;99.90;;;;;;5000225;28;20089;-82
2023/07/09 08:02:00;;;;;;;13.25;7.00;;;25.80;99.90;;;;;;4990036;28;20076;-83
2023/07/09 08:04:26;;;;;;;15.07;7.70;;;25.80;99.90;;;;;;5004869;28;20279;-83
2023/07/09 08:06:53;;;;;;;14.02;7.40;;;25.80;99.90;;;;;;5019945;28;20028;-83
2023/07/09 08:09:19;;;;;;;11.98;6.88;;;25.90;99.90;;;;;;5017810;28;20042;-83
2023/07/09 08:11:45;;;;;;;12.63;7.18;;;26.00;99.90;;;;;;5019930;28;20026;-84
2023/07/09 08:14:11;;;;;;;13.98;6.88;;;26.20;99.90;;;;;;5018806;28;20051;-83
2023/07/09 08:16:37;;;;;;;12.57;7.00;;;26.30;99.90;;;;;;5019075;28;20010;-84
2023/07/09 08:19:02;;;;;;;11.27;6.80;;;26.60;99.90;;;;;;5005126;28;20067;-84
2023/07/09 08:21:28;;;;;;;12.70;7.07;;;26.70;99.90;;;;;;5020461;28;20085;-84
2023/07/09 08:23:54;;;;;;;12.10;6.43;;;26.70;99.90;;;;;;5004407;28;20030;-84
2023/07/09 08:26:20;;;;;;;12.70;6.90;;;26.80;99.90;;;;;;4988044;28;20040;-83
2023/07/09 08:28:45;;;;;;;11.90;6.65;;;27.00;99.90;;;;;;5003757;28;20025;-84
2023/07/09 08:31:11;;;;;;;11.93;6.20;;;27.10;99.90;;;;;;5018140;28;20075;-84
2023/07/09 08:33:37;;;;;;;14.02;6.43;;;27.20;99.90;;;;;;5017267;28;20018;-84
2023/07/09 08:36:03;;;;;;;11.20;5.78;;;27.20;99.90;;;;;;4988134;28;20029;-84
2023/07/09 08:38:29;;;;;;;12.13;5.93;;;27.30;99.90;;;;;;4988423;28;20275;-84
2023/07/09 08:40:59;;;;;;;11.02;5.72;;;27.30;99.90;;;;;;5005166;28;20029;-84
2023/07/09 08:43:33;;;;;;;13.30;6.20;;;27.40;99.90;;;;;;5001884;28;20014;-84
2023/07/09 08:46:06;;;;;;;13.27;6.00;;;27.50;99.90;;;;;;5008391;28;20048;-84
2023/07/09 08:48:38;;;;;;;11.60;6.05;;;27.50;99.90;;;;;;4993907;28;20026;-85
2023/07/09 08:51:14;;;;;;;12.80;6.18;;;27.60;99.90;;;;;;5014041;28;20175;-85
2023/07/09 08:53:55;;;;;;;12.82;6.40;;;27.60;99.90;;;;;;5004945;28;20021;-85
2023/07/09 08:56:22;;;;;;;12.05;6.10;;;27.30;99.90;;;;;;5018613;28;20030;-85
2023/07/09 08:58:53;;;;;;;11.82;6.28;;;27.10;99.90;;;;;;5021105;28;20136;-85
2023/07/09 09:01:43;;;;;;;17.95;6.38;;;27.80;99.90;;;;;;5000545;28;20329;-85
2023/07/09 09:04:31;;;;;;;12.93;6.05;;;28.00;99.90;;;;;;5002755;28;20034;-85
2023/07/09 09:07:10;;;;;;;11.70;6.03;;;28.20;99.90;;;;;;5017098;28;20018;-86
2023/07/09 09:09:52;;;;;;;10.70;5.53;;;28.30;99.90;;;;;;4989732;28;20022;-89
2023/07/09 09:12:27;;;;;;;12.35;6.80;;;28.40;99.90;;;;;;5017538;28;20067;-89
2023/07/09 09:15:14;;;;;;;14.00;6.30;;;28.60;99.90;;;;;;5004242;28;20029;-89
2023/07/09 09:17:41;;;;;;;13.20;6.40;;;28.70;99.90;;;;;;5016298;28;20014;-87
2023/07/09 09:20:17;;;;;;;11.43;6.32;;;28.80;99.90;;;;;;4995295;28;20239;-90
2023/07/09 09:22:48;;;;;;;12.30;5.75;;;28.90;99.90;;;;;;5017571;28;20030;-89
2023/07/09 09:25:27;;;;;;;12.68;6.10;;;29.00;99.90;;;;;;5018508;28;20030;-89
2023/07/09 09:27:52;;;;;;;14.23;6.78;;;29.10;99.90;;;;;;5002755;28;20089;-91
2023/07/09 09:30:25;;;;;;;11.40;6.03;;;29.10;99.90;;;;;;5004231;28;20030;-89
2023/07/09 09:33:01;;;;;;;11.30;6.45;;;29.10;99.90;;;;;;5000274;28;20029;-88
2023/07/09 09:35:39;;;;;;;11.18;6.10;;;29.00;99.90;;;;;;4983168;28;20319;-89
2023/07/09 09:38:19;;;;;;;13.25;6.85;;;29.10;99.90;;;;;;5012030;28;20275;-89
2023/07/09 09:40:45;;;;;;;12.63;6.22;;;29.20;99.90;;;;;;5015517;28;20049;-89
2023/07/09 09:43:20;;;;;;;12.93;6.40;;;29.30;99.90;;;;;;5017432;28;20022;-88
2023/07/09 09:45:51;;;;;;;13.73;6.82;;;29.40;99.90;;;;;;5019263;28;20034;-88
2023/07/09 09:48:32;;;;;;;13.32;6.60;;;29.40;99.90;;;;;;5000294;28;20026;-88
2023/07/09 09:51:01;;;;;;;11.73;6.25;;;29.40;99.90;;;;;;5001187;28;20080;-88
2023/07/09 09:53:29;;;;;;;12.10;6.05;;;29.50;99.90;;;;;;5017837;28;20037;-89
2023/07/09 09:55:56;;;;;;;12.75;7.07;;;29.50;99.90;;;;;;5015448;28;20102;-88
2023/07/09 09:58:29;;;;;;;13.82;6.63;;;29.60;99.90;;;;;;5012118;28;20226;-88
2023/07/09 10:00:57;;;;;;;12.65;6.65;;;29.60;99.90;;;;;;4996363;28;20305;-88
2023/07/09 10:03:33;;;;;;;11.85;6.70;;;29.80;99.90;;;;;;5016202;28;20040;-88
2023/07/09 10:06:32;;;;;;;14.15;6.25;;;29.80;99.90;;;;;;5001550;28;20033;-86
2023/07/09 10:09:16;;;;;;;11.57;6.10;;;29.90;99.90;;;;;;5027594;28;20030;-87
2023/07/09 10:11:54;;;;;;;12.38;7.05;;;32.10;99.90;;;;;;5013401;28;20034;-87
2023/07/09 10:14:52;;;;;;;12.55;6.75;;;30.00;99.90;;;;;;4996100;28;20074;-86
2023/07/09 10:17:36;;;;;;;14.40;6.55;;;30.10;99.90;;;;;;4966240;28;20056;-86
2023/07/09 10:20:25;;;;;;;14.57;7.25;;;30.10;99.90;;;;;;4996527;28;20221;-87
2023/07/09 10:23:15;;;;;;;12.40;6.93;;;30.10;99.90;;;;;;5015040;28;20288;-87
2023/07/09 10:25:50;;;;;;;14.52;7.95;;;30.20;99.90;;;;;;4997905;28;20063;-87
2023/07/09 10:29:02;;;;;;;14.02;8.30;;;30.30;99.90;;;;;;4996788;28;20050;-87
2023/07/09 10:31:44;;;;;;;13.85;7.80;;;30.30;99.90;;;;;;4992897;28;20074;-87
2023/07/09 10:34:40;;;;;;;13.73;7.90;;;30.40;99.90;;;;;;4999071;28;20101;-87
2023/07/09 10:37:26;;;;;;;14.52;7.70;;;30.40;99.90;;;;;;5016007;28;20025;-87
2023/07/09 10:39:56;;;;;;;15.80;9.00;;;30.30;99.90;;;;;;4997934;28;20041;-87
2023/07/09 10:42:34;;;;;;;14.88;8.65;;;30.20;99.90;;;;;;4994573;28;20061;-86
2023/07/09 10:45:11;;;;;;;14.93;8.80;;;30.20;99.90;;;;;;5009651;28;20105;-86
2023/07/09 10:47:44;;;;;;;12.25;7.70;;;30.10;99.90;;;;;;4995075;28;20061;-88
2023/07/09 10:50:27;;;;;;;13.48;7.47;;;30.20;99.90;;;;;;5015311;28;20056;-88
2023/07/09 10:52:57;;;;;;;15.68;8.38;;;30.30;99.90;;;;;;4993750;28;20036;-88
2023/07/09 10:55:40;;;;;;;17.00;8.57;;;30.20;99.90;;;;;;4995585;28;20022;-88
2023/07/09 10:58:28;;;;;;;15.48;7.90;;;30.40;99.90;;;;;;4997218;28;20102;-87
2023/07/09 11:00:54;;;;;;;16.25;7.75;;;30.40;99.90;;;;;;4996883;28;20071;-88
2023/07/09 11:03:31;;;;;;;14.75;8.38;;;30.40;99.90;;;;;;4992626;28;20034;-88
2023/07/09 11:05:56;;;;;;;13.27;7.47;;;30.60;99.90;;;;;;4992766;28;20240;-87
2023/07/09 11:08:36;;;;;;;14.77;8.25;;;30.40;99.90;;;;;;4980027;28;20037;-87
2023/07/09 11:11:30;;;;;;;13.18;7.90;;;30.50;99.90;;;;;;4992192;28;20479;-87
2023/07/09 11:14:10;;;;;;;13.75;7.88;;;30.60;99.90;;;;;;4994516;28;20026;-87
2023/07/09 11:16:41;;;;;;;13.40;7.30;;;30.70;99.90;;;;;;5004449;28;20136;-87
2023/07/09 11:19:18;;;;;;;15.23;7.78;;;30.70;99.90;;;;;;4991626;28;20026;-88
2023/07/09 11:21:59;;;;;;;15.32;7.97;;;30.70;99.90;;;;;;5014913;28;20034;-87
2023/07/09 11:24:36;;;;;;;13.77;8.07;;;30.80;99.90;;;;;;5010813;28;20030;-88
2023/07/09 11:27:02;;;;;;;12.93;7.18;;;30.80;99.90;;;;;;4998977;28;20038;-88
2023/07/09 11:29:28;;;;;;;13.50;6.80;;;30.80;99.90;;;;;;4965763;28;20248;-88
2023/07/09 11:31:55;;;;;;;13.63;7.10;;;30.90;99.90;;;;;;5003625;28;20029;-87
2023/07/09 11:34:27;;;;;;;12.13;7.07;;;31.00;99.90;;;;;;4999434;28;20089;-88
2023/07/09 11:37:01;;;;;;;14.98;7.63;;;31.10;99.90;;;;;;5002084;28;20311;-88
2023/07/09 11:39:39;;;;;;;16.45;8.15;;;31.20;99.90;;;;;;5016563;28;20279;-88
2023/07/09 11:42:31;;;;;;;13.02;7.22;;;31.20;99.90;;;;;;5001883;28;20034;-87
2023/07/09 11:45:12;;;;;;;15.23;8.20;;;31.20;99.90;;;;;;5015017;28;20037;-87
2023/07/09 11:48:20;;;;;;;12.88;7.32;;;31.20;99.90;;;;;;5018124;28;20110;-87
2023/07/09 11:50:49;;;;;;;12.50;7.38;;;31.20;99.90;;;;;;5012804;28;20033;-88
2023/07/09 11:53:37;;;;;;;13.88;7.88;;;31.20;99.90;;;;;;5001317;28;20057;-89
2023/07/09 11:56:04;;;;;;;13.98;6.97;;;31.30;99.90;;;;;;4992677;28;20026;-89
2023/07/09 11:58:29;;;;;;;13.55;6.60;;;31.30;99.90;;;;;;5001088;28;20026;-88
2023/07/09 12:00:57;;;;;;;12.00;7.25;;;31.20;99.90;;;;;;4985211;28;20029;-88
2023/07/09 12:03:34;;;;;;;15.32;7.30;;;31.30;99.90;;;;;;5002087;28;20194;-87
2023/07/09 12:06:17;;;;;;;12.65;7.13;;;31.30;99.90;;;;;;5014613;28;20022;-88
2023/07/09 12:08:44;;;;;;;13.63;6.78;;;29.40;99.90;;;;;;5001371;28;20037;-88
2023/07/09 12:11:31;;;;;;;11.63;6.63;;;31.40;99.90;;;;;;5016618;28;20034;-88
2023/07/09 12:14:08;;;;;;;11.65;6.15;;;31.50;99.90;;;;;;5000545;28;20041;-87
2023/07/09 12:16:37;;;;;;;12.48;6.68;;;31.60;99.90;;;;;;5016350;28;20315;-87
2023/07/09 12:19:03;;;;;;;12.68;7.57;;;31.70;99.90;;;;;;5011444;28;20033;-88
2023/07/09 12:21:32;;;;;;;15.95;7.28;;;31.70;99.90;;;;;;4997088;28;20176;-87
2023/07/09 12:23:58;;;;;;;12.55;6.50;;;31.70;99.90;;;;;;4999495;28;20175;-88
2023/07/09 12:26:24;;;;;;;13.25;6.70;;;31.80;99.90;;;;;;4983654;28;20295;-84
2023/07/09 12:28:51;;;;;;;11.45;6.45;;;31.80;99.90;;;;;;5012285;28;20052;-85
2023/07/09 12:31:17;;;;;;;12.98;6.60;;;31.80;99.90;;;;;;4981746;28;20097;-86
2023/07/09 12:33:52;;;;;;;11.52;6.38;;;31.80;99.90;;;;;;5014419;28;20025;-85
2023/07/09 12:36:19;;;;;;;12.82;6.78;;;31.80;99.90;;;;;;4997544;28;20053;-85
2023/07/09 12:38:49;;;;;;;13.13;6.88;;;31.80;99.90;;;;;;4998149;28;20041;-86
2023/07/09 12:41:37;;;;;;;15.30;6.35;;;33.20;99.90;;;;;;5014278;28;20067;-86
2023/07/09 12:44:03;;;;;;;13.05;6.20;;;31.90;99.90;;;;;;4998891;28;20264;-87
2023/07/09 12:46:29;;;;;;;12.73;6.22;;;32.00;99.90;;;;;;4983254;28;20033;-85
2023/07/09 12:48:56;;;;;;;10.73;5.93;;;32.20;99.90;;;;;;4995017;28;20059;-86